Time;durP1;ratioP1;P1;durP2;ratioP2;P2;SDS_P1;SDS_P2;PMS_P1;PMS_P2;Temp;Humidity;BMP_temperature;BMP_pressure;BME280_temperature;BME280_humidity;BME280_pressure;Samples;Min_cycle;Max_cycle;Signal;HPM_P1;HPM_P2
2022/12/26 00:01:23;;;;;;;2.53;2.10;;;22.50;59.50;;;;;;5078537;28;21188;-66
2022/12/26 00:03:53;;;;;;;1.93;1.83;;;22.50;59.40;;;;;;5085955;28;20554;-64
2022/12/26 00:06:25;;;;;;;2.03;1.93;;;22.50;59.50;;;;;;5094272;28;20438;-64
2022/12/26 00:08:53;;;;;;;2.37;2.17;;;22.50;59.70;;;;;;5113564;28;20531;-64
2022/12/26 00:11:22;;;;;;;2.10;2.00;;;22.50;59.70;;;;;;5118159;27;20455;-65
2022/12/26 00:13:54;;;;;;;1.97;1.87;;;22.50;59.90;;;;;;5124531;27;20488;-64
2022/12/26 00:16:23;;;;;;;2.03;1.90;;;22.50;59.80;;;;;;5121223;27;20448;-64
2022/12/26 00:18:53;;;;;;;3.10;2.30;;;22.50;59.70;;;;;;5119894;27;20460;-65
2022/12/26 00:21:22;;;;;;;2.80;1.90;;;22.60;59.70;;;;;;5112033;27;20438;-64
2022/12/26 00:23:50;;;;;;;1.90;1.80;;;22.60;59.50;;;;;;5118454;27;20453;-64
2022/12/26 00:26:21;;;;;;;3.10;1.63;;;22.60;59.40;;;;;;5119801;27;20499;-64
2022/12/26 00:28:49;;;;;;;2.50;2.30;;;22.70;59.40;;;;;;5120019;27;20441;-65
2022/12/26 00:31:20;;;;;;;4.50;1.80;;;22.70;59.30;;;;;;5120027;27;20523;-64
2022/12/26 00:33:48;;;;;;;2.33;2.23;;;22.70;59.00;;;;;;5114559;27;20478;-64
2022/12/26 00:36:20;;;;;;;3.07;2.40;;;22.70;59.00;;;;;;5112116;28;20860;-64
2022/12/26 00:38:50;;;;;;;2.57;2.37;;;22.70;58.90;;;;;;5123885;27;20526;-65
2022/12/26 00:41:19;;;;;;;2.03;1.93;;;22.60;58.90;;;;;;5117242;27;20455;-64
2022/12/26 00:43:48;;;;;;;1.80;1.70;;;22.60;59.10;;;;;;5110384;28;20436;-64
2022/12/26 00:46:17;;;;;;;1.93;1.80;;;22.60;59.30;;;;;;5130777;27;20463;-65
2022/12/26 00:48:45;;;;;;;2.10;2.00;;;22.50;59.00;;;;;;5120523;27;20477;-67
2022/12/26 00:51:14;;;;;;;1.97;1.80;;;22.50;59.10;;;;;;5119962;27;20443;-64
2022/12/26 00:53:44;;;;;;;2.00;1.90;;;22.50;59.20;;;;;;5116816;27;20530;-64
2022/12/26 00:56:12;;;;;;;3.40;2.40;;;22.50;59.10;;;;;;5110042;28;20447;-64
2022/12/26 00:58:40;;;;;;;2.00;1.90;;;22.40;59.30;;;;;;5106398;27;20487;-64
2022/12/26 01:01:13;;;;;;;1.63;1.53;;;22.40;59.30;;;;;;5125038;27;20447;-64
2022/12/26 01:03:42;;;;;;;2.33;2.13;;;22.40;59.70;;;;;;5122052;27;20945;-64
2022/12/26 01:06:10;;;;;;;1.80;1.70;;;22.40;59.40;;;;;;5119926;27;20472;-69
2022/12/26 01:08:38;;;;;;;2.20;2.10;;;22.30;59.60;;;;;;5101769;28;20848;-64
2022/12/26 01:11:10;;;;;;;2.13;2.03;;;22.30;59.30;;;;;;5105493;28;20460;-65
2022/12/26 01:13:39;;;;;;;2.47;2.27;;;22.30;59.30;;;;;;5102394;28;20852;-67
2022/12/26 01:16:08;;;;;;;2.20;2.10;;;22.30;59.30;;;;;;5103430;28;20447;-65
2022/12/26 01:18:36;;;;;;;2.67;2.47;;;22.30;59.40;;;;;;5103059;28;20456;-64
2022/12/26 01:21:06;;;;;;;2.83;2.60;;;22.30;59.40;;;;;;5101825;28;20453;-64
2022/12/26 01:23:35;;;;;;;2.67;2.47;;;22.20;59.40;;;;;;5085457;28;20526;-64
2022/12/26 01:26:05;;;;;;;2.13;2.03;;;22.20;59.50;;;;;;5104716;28;20801;-64
2022/12/26 01:28:49;;;;;;;2.37;2.17;;;22.20;59.60;;;;;;5095547;28;20498;-65
2022/12/26 01:31:17;;;;;;;1.87;1.77;;;22.20;59.70;;;;;;5102711;28;20517;-64
2022/12/26 01:33:45;;;;;;;1.67;1.57;;;22.30;59.60;;;;;;5100804;28;20496;-65
2022/12/26 01:36:14;;;;;;;2.10;2.00;;;22.20;59.40;;;;;;5098336;28;20953;-65
2022/12/26 01:38:42;;;;;;;2.60;1.70;;;22.20;59.30;;;;;;5093803;28;20805;-64
2022/12/26 01:41:18;;;;;;;1.90;1.80;;;22.30;59.70;;;;;;5098820;28;20496;-65
2022/12/26 01:43:54;;;;;;;2.10;2.00;;;22.30;59.60;;;;;;5091557;28;20463;-64
2022/12/26 01:46:27;;;;;;;1.90;1.80;;;22.30;59.30;;;;;;5103699;28;20467;-64
2022/12/26 01:48:58;;;;;;;2.47;2.30;;;22.30;59.30;;;;;;5104133;28;20466;-65
2022/12/26 01:51:29;;;;;;;1.70;1.60;;;22.40;59.20;;;;;;5104298;28;20450;-65
2022/12/26 01:54:00;;;;;;;1.80;1.70;;;22.40;59.10;;;;;;5103583;28;20440;-63
2022/12/26 01:56:48;;;;;;;1.60;1.50;;;22.40;59.00;;;;;;5109659;28;20911;-64
2022/12/26 01:59:20;;;;;;;2.30;2.10;;;22.40;59.10;;;;;;5107899;28;20467;-65
2022/12/26 02:01:51;;;;;;;2.77;2.20;;;22.40;59.00;;;;;;5102869;28;20436;-64
2022/12/26 02:07:12;;;;;;;2.03;1.80;;;22.40;59.20;;;;;;5105939;27;20494;-64
2022/12/26 02:09:41;;;;;;;1.90;1.80;;;22.40;59.10;;;;;;5133634;27;20450;-64
2022/12/26 02:12:14;;;;;;;2.07;1.97;;;22.30;59.30;;;;;;5125612;27;20462;-64
2022/12/26 02:15:06;;;;;;;1.70;1.60;;;22.30;59.10;;;;;;5131700;27;20454;-64
2022/12/26 02:17:34;;;;;;;2.17;2.07;;;22.30;59.20;;;;;;5127626;27;20518;-63
2022/12/26 02:20:16;;;;;;;1.93;1.83;;;22.30;59.20;;;;;;5131820;27;20447;-65
2022/12/26 02:23:19;;;;;;;1.80;1.67;;;22.30;59.20;;;;;;5114648;27;20980;-64
2022/12/26 02:26:17;;;;;;;1.80;1.70;;;22.30;59.50;;;;;;5120921;27;20949;-64
2022/12/26 02:29:19;;;;;;;1.57;1.47;;;22.30;59.20;;;;;;5087423;27;20556;-66
2022/12/26 02:31:53;;;;;;;1.80;1.70;;;22.30;59.30;;;;;;5069987;27;20538;-64
2022/12/26 02:34:27;;;;;;;1.90;1.80;;;22.30;59.20;;;;;;5117612;27;20518;-65
2022/12/26 02:37:20;;;;;;;2.03;1.93;;;22.40;59.00;;;;;;5117148;27;20959;-64
2022/12/26 02:40:11;;;;;;;1.87;1.77;;;22.30;59.10;;;;;;5123444;27;20537;-64
2022/12/26 02:42:53;;;;;;;1.70;1.60;;;22.30;59.10;;;;;;5116595;27;20440;-64
2022/12/26 02:48:24;;;;;;;1.97;1.87;;;22.30;58.90;;;;;;5116682;27;20460;-66
2022/12/26 03:14:02;;;;;;;1.90;1.80;;;22.20;59.20;;;;;;5126543;27;20456;-66
2022/12/26 03:19:19;;;;;;;1.67;1.57;;;22.20;59.00;;;;;;5115225;28;20576;-68
2022/12/26 03:21:49;;;;;;;2.10;1.90;;;22.20;59.30;;;;;;5122634;27;20859;-64
2022/12/26 03:24:17;;;;;;;2.03;1.93;;;22.20;59.30;;;;;;5125359;27;20472;-66
2022/12/26 03:26:51;;;;;;;1.63;1.53;;;22.20;59.00;;;;;;5125918;27;20503;-67
2022/12/26 03:32:11;;;;;;;2.33;2.13;;;22.20;59.20;;;;;;5118340;27;20444;-64
2022/12/26 03:34:41;;;;;;;2.07;1.97;;;22.20;59.10;;;;;;5121826;27;20543;-67
2022/12/26 03:37:35;;;;;;;1.97;1.87;;;22.20;59.10;;;;;;5117048;27;20443;-65
2022/12/26 04:41:34;;;;;;;1.10;1.00;;;22.30;59.20;;;;;;5114554;27;20466;-68
2022/12/26 04:44:06;;;;;;;1.50;1.40;;;22.20;59.20;;;;;;5118983;27;20447;-64
2022/12/26 04:46:37;;;;;;;1.60;1.27;;;22.20;59.30;;;;;;5128342;27;20883;-64
2022/12/26 04:51:54;;;;;;;1.70;1.60;;;22.20;59.30;;;;;;5102654;28;20854;-64
2022/12/26 04:54:22;;;;;;;1.30;1.30;;;22.20;59.00;;;;;;5104428;28;20899;-64
2022/12/26 04:56:51;;;;;;;1.43;1.33;;;22.20;59.10;;;;;;5111677;27;20456;-65
2022/12/26 04:59:22;;;;;;;1.73;1.50;;;22.30;59.00;;;;;;5099720;28;20443;-64
2022/12/26 05:10:17;;;;;;;1.20;1.20;;;22.20;59.30;;;;;;5112358;28;20436;-64
2022/12/26 05:12:45;;;;;;;1.00;1.00;;;22.20;59.40;;;;;;5106793;28;20944;-65
2022/12/26 05:15:15;;;;;;;1.40;1.30;;;22.20;59.40;;;;;;5111010;28;20444;-71
2022/12/26 05:28:56;;;;;;;1.10;1.10;;;22.30;59.40;;;;;;5108448;28;20448;-64
2022/12/26 05:31:26;;;;;;;1.23;1.23;;;22.30;59.30;;;;;;5108448;28;20555;-64
2022/12/26 05:34:04;;;;;;;1.33;1.33;;;22.30;59.40;;;;;;5103168;28;20501;-64
2022/12/26 05:36:37;;;;;;;1.90;1.80;;;22.30;59.40;;;;;;5118253;28;20442;-65
2022/12/26 05:39:07;;;;;;;1.33;1.23;;;22.40;59.20;;;;;;5115153;28;20517;-64
2022/12/26 05:41:35;;;;;;;1.43;1.37;;;22.40;59.20;;;;;;5112655;28;20468;-67
2022/12/26 05:44:04;;;;;;;1.60;1.50;;;22.40;59.20;;;;;;5120019;28;20495;-64
2022/12/26 05:46:34;;;;;;;1.30;1.30;;;22.40;59.10;;;;;;5109602;28;20474;-64
2022/12/26 05:49:02;;;;;;;1.37;1.27;;;22.50;59.10;;;;;;5110622;28;20791;-64
2022/12/26 05:51:31;;;;;;;1.33;1.23;;;22.50;59.00;;;;;;5110186;28;20539;-65
2022/12/26 05:53:59;;;;;;;1.80;1.70;;;22.50;59.00;;;;;;5124620;28;20535;-64
2022/12/26 05:56:27;;;;;;;1.70;1.60;;;22.50;58.90;;;;;;5111123;28;20460;-69
2022/12/26 05:58:57;;;;;;;1.30;1.30;;;22.50;59.00;;;;;;5101282;28;20816;-65
2022/12/26 06:01:27;;;;;;;1.50;1.40;;;22.50;58.80;;;;;;5105462;28;20461;-64
2022/12/26 06:03:59;;;;;;;1.93;1.83;;;22.40;58.80;;;;;;5113148;28;20910;-64
2022/12/26 06:06:28;;;;;;;1.57;1.47;;;22.40;58.60;;;;;;5100590;28;20492;-65
2022/12/26 06:08:57;;;;;;;1.60;1.50;;;22.40;58.80;;;;;;5097682;28;20456;-65
2022/12/26 06:11:27;;;;;;;1.37;1.37;;;22.40;58.70;;;;;;5092491;28;20836;-64
2022/12/26 06:13:55;;;;;;;1.53;1.33;;;22.30;58.80;;;;;;5097997;28;20528;-64
2022/12/26 06:16:24;;;;;;;2.17;1.70;;;22.30;58.80;;;;;;5087931;28;20588;-64
2022/12/26 06:18:53;;;;;;;1.40;1.30;;;22.30;58.80;;;;;;5088295;28;20435;-65
2022/12/26 06:21:24;;;;;;;1.57;1.47;;;22.20;58.90;;;;;;5085344;28;20516;-64
2022/12/26 06:23:52;;;;;;;1.40;1.30;;;22.20;59.00;;;;;;5102523;28;20776;-67
2022/12/26 06:26:20;;;;;;;1.97;1.87;;;22.20;59.20;;;;;;5095316;28;20466;-65
2022/12/26 06:28:48;;;;;;;1.57;1.43;;;22.10;59.00;;;;;;5086740;28;20453;-65
2022/12/26 06:31:19;;;;;;;1.50;1.40;;;22.10;59.30;;;;;;5095989;28;20457;-64
2022/12/26 06:33:50;;;;;;;1.50;1.40;;;22.10;59.30;;;;;;5089363;28;20459;-64
2022/12/26 06:36:20;;;;;;;1.47;1.37;;;22.10;59.40;;;;;;5092684;28;20479;-64
2022/12/26 06:38:50;;;;;;;1.67;1.53;;;22.10;59.50;;;;;;5102083;28;20541;-67
2022/12/26 06:41:21;;;;;;;0.90;0.90;;;22.10;59.50;;;;;;5099660;28;20483;-64
2022/12/26 06:43:49;;;;;;;1.23;1.23;;;22.10;59.50;;;;;;5106585;28;20456;-64
2022/12/26 06:46:19;;;;;;;1.30;1.20;;;22.10;59.40;;;;;;5102526;28;21210;-67
2022/12/26 06:48:47;;;;;;;2.13;1.70;;;22.20;59.40;;;;;;5095161;28;20472;-67
2022/12/26 06:51:17;;;;;;;1.07;1.07;;;22.20;59.40;;;;;;5100309;28;20438;-66
2022/12/26 06:53:46;;;;;;;1.73;1.63;;;22.20;59.40;;;;;;5084191;28;20801;-65
2022/12/26 06:56:17;;;;;;;1.40;1.30;;;22.30;59.30;;;;;;5087019;28;20447;-66
2022/12/26 06:58:45;;;;;;;1.40;1.30;;;22.30;59.10;;;;;;5090841;28;20440;-67
2022/12/26 07:01:15;;;;;;;1.40;1.30;;;22.30;58.90;;;;;;5099724;28;20440;-71
2022/12/26 07:03:45;;;;;;;1.30;1.30;;;22.40;58.80;;;;;;5109396;28;20440;-64
2022/12/26 07:06:23;;;;;;;1.47;1.37;;;22.40;58.90;;;;;;5099058;28;20453;-65
2022/12/26 07:08:51;;;;;;;1.20;1.20;;;22.40;58.90;;;;;;5094708;28;20538;-64
2022/12/26 07:11:23;;;;;;;1.60;1.50;;;22.40;58.90;;;;;;5089549;28;20553;-64
2022/12/26 07:13:52;;;;;;;1.07;1.07;;;22.40;58.90;;;;;;5093498;28;20441;-65
2022/12/26 07:16:20;;;;;;;1.60;1.50;;;22.40;58.80;;;;;;5091761;28;20451;-66
2022/12/26 07:18:48;;;;;;;1.73;1.33;;;22.40;58.80;;;;;;5092119;28;20491;-64
2022/12/26 07:21:17;;;;;;;1.40;1.30;;;22.30;58.70;;;;;;5089679;28;20433;-64
2022/12/26 07:23:45;;;;;;;2.00;1.90;;;22.30;58.80;;;;;;5091673;28;20453;-64
2022/12/26 07:26:14;;;;;;;1.23;1.13;;;22.30;58.80;;;;;;5090611;28;20491;-66
2022/12/26 07:28:43;;;;;;;1.60;1.50;;;22.20;58.80;;;;;;5090948;28;20537;-64
2022/12/26 07:31:16;;;;;;;1.30;1.30;;;22.20;58.90;;;;;;5089726;28;20448;-62
2022/12/26 07:33:48;;;;;;;1.60;1.50;;;22.20;59.10;;;;;;5092827;28;20448;-62
2022/12/26 07:36:17;;;;;;;1.40;1.30;;;22.20;59.00;;;;;;5089035;28;20449;-64
2022/12/26 07:38:45;;;;;;;1.63;1.53;;;22.20;59.00;;;;;;5087805;28;20453;-68
2022/12/26 07:44:02;;;;;;;1.83;1.73;;;22.10;59.00;;;;;;5093193;28;20448;-66
2022/12/26 07:46:30;;;;;;;1.43;1.33;;;22.10;59.10;;;;;;5090842;28;20499;-66
2022/12/26 07:48:58;;;;;;;1.10;1.10;;;22.10;59.10;;;;;;5087393;28;20960;-67
2022/12/26 07:51:27;;;;;;;1.73;1.63;;;22.10;59.20;;;;;;5079544;28;20791;-65
2022/12/26 07:53:55;;;;;;;1.20;1.10;;;22.10;59.20;;;;;;5081025;28;20459;-64
2022/12/26 07:56:23;;;;;;;0.90;0.90;;;22.10;59.20;;;;;;5081346;28;20553;-64
2022/12/26 07:58:52;;;;;;;1.63;1.53;;;22.20;59.30;;;;;;5079773;28;20445;-64
2022/12/26 08:01:21;;;;;;;1.80;1.70;;;22.20;59.10;;;;;;5077272;28;20459;-66
2022/12/26 08:03:50;;;;;;;1.50;1.40;;;22.20;59.20;;;;;;5077597;28;20469;-64
2022/12/26 08:06:19;;;;;;;1.00;1.00;;;22.20;59.30;;;;;;5082959;28;20455;-65
2022/12/26 08:08:48;;;;;;;1.10;1.10;;;22.30;59.30;;;;;;5112276;28;20468;-64
2022/12/26 08:11:20;;;;;;;1.40;1.30;;;22.30;59.20;;;;;;5102339;27;20470;-67
2022/12/26 08:13:49;;;;;;;1.20;1.20;;;22.40;59.20;;;;;;5109695;27;20531;-65
2022/12/26 08:16:17;;;;;;;1.30;1.20;;;22.40;59.10;;;;;;5105627;28;20476;-64
2022/12/26 08:18:47;;;;;;;1.30;1.20;;;22.40;59.00;;;;;;5112351;28;20479;-64
2022/12/26 08:21:15;;;;;;;2.40;1.50;;;22.50;59.00;;;;;;5109836;28;20487;-67
2022/12/26 08:23:44;;;;;;;1.13;1.03;;;22.50;59.00;;;;;;5103037;28;20538;-64
2022/12/26 08:26:19;;;;;;;1.20;1.20;;;22.50;59.00;;;;;;5085903;28;20567;-64
2022/12/26 08:28:47;;;;;;;0.93;0.90;;;22.50;59.00;;;;;;5114359;27;20464;-69
2022/12/26 08:31:16;;;;;;;1.20;1.20;;;22.40;59.10;;;;;;5106962;27;20477;-66
2022/12/26 08:33:44;;;;;;;1.50;1.40;;;22.50;59.10;;;;;;5102912;28;20452;-64
2022/12/26 08:36:15;;;;;;;1.40;1.30;;;22.40;59.10;;;;;;5096885;27;20920;-66
2022/12/26 08:38:45;;;;;;;1.30;1.20;;;22.40;59.10;;;;;;5086775;28;20465;-67
2022/12/26 08:41:16;;;;;;;1.23;1.23;;;22.40;59.20;;;;;;5106123;27;20473;-64
2022/12/26 08:43:47;;;;;;;1.30;1.20;;;22.40;59.20;;;;;;5101258;27;20452;-70
2022/12/26 08:46:36;;;;;;;1.40;1.30;;;22.40;59.20;;;;;;5100377;27;20460;-66
2022/12/26 08:49:04;;;;;;;1.50;1.40;;;22.40;59.30;;;;;;5104083;28;20472;-65
2022/12/26 08:51:33;;;;;;;1.40;1.30;;;22.40;59.30;;;;;;5102811;27;20481;-68
2022/12/26 08:54:02;;;;;;;1.40;1.30;;;22.40;59.30;;;;;;5103653;28;20464;-66
2022/12/26 08:56:30;;;;;;;2.10;1.30;;;22.30;59.30;;;;;;5099385;27;20461;-67
2022/12/26 08:58:58;;;;;;;1.67;1.20;;;22.40;59.30;;;;;;5103644;27;20565;-66
2022/12/26 09:01:29;;;;;;;1.00;1.00;;;22.40;59.30;;;;;;5098966;27;20458;-67
2022/12/26 09:04:00;;;;;;;1.27;1.17;;;22.40;59.20;;;;;;5104078;27;21686;-70
2022/12/26 09:06:29;;;;;;;1.40;1.30;;;22.40;59.30;;;;;;5103952;27;20495;-68
2022/12/26 09:08:59;;;;;;;1.80;1.70;;;22.40;59.30;;;;;;5096723;28;20481;-64
2022/12/26 09:11:28;;;;;;;2.50;2.30;;;22.40;59.30;;;;;;5101143;27;20531;-64
2022/12/26 09:13:58;;;;;;;3.40;2.40;;;22.40;59.30;;;;;;5107429;28;20444;-67
2022/12/26 09:16:29;;;;;;;2.87;2.67;;;22.40;59.30;;;;;;5106765;28;20955;-65
2022/12/26 09:19:05;;;;;;;3.10;2.90;;;22.50;59.30;;;;;;5096981;28;20815;-64
2022/12/26 09:21:33;;;;;;;4.73;4.10;;;22.50;59.30;;;;;;5098530;27;20453;-66
2022/12/26 09:24:07;;;;;;;4.93;3.90;;;22.50;59.30;;;;;;5096326;27;20461;-65
2022/12/26 09:26:35;;;;;;;5.17;4.67;;;22.50;59.30;;;;;;5103268;28;20449;-65
2022/12/26 09:29:05;;;;;;;7.30;4.70;;;22.60;59.20;;;;;;5102542;28;20469;-65
2022/12/26 09:31:35;;;;;;;5.70;4.57;;;22.60;59.10;;;;;;5101903;28;21006;-66
2022/12/26 09:34:04;;;;;;;6.13;5.00;;;22.60;59.10;;;;;;5106037;28;20447;-65
2022/12/26 09:36:37;;;;;;;5.57;4.00;;;22.60;58.90;;;;;;5104374;28;20441;-65
2022/12/26 09:39:08;;;;;;;5.07;4.67;;;22.70;59.00;;;;;;5099104;28;20465;-66
2022/12/26 09:41:59;;;;;;;6.50;5.80;;;22.70;59.00;;;;;;5097870;28;20486;-65
2022/12/26 09:44:39;;;;;;;7.60;6.17;;;22.60;59.00;;;;;;5099316;28;20535;-65
2022/12/26 09:47:20;;;;;;;6.63;5.93;;;22.60;59.00;;;;;;5101972;28;20502;-65
2022/12/26 09:49:55;;;;;;;6.90;6.10;;;22.60;59.10;;;;;;5093713;28;20985;-67
2022/12/26 09:52:40;;;;;;;7.83;6.40;;;22.60;59.10;;;;;;5107838;28;20503;-65
2022/12/26 09:55:26;;;;;;;7.43;6.73;;;22.60;59.10;;;;;;5101652;28;20951;-64
2022/12/26 09:57:58;;;;;;;8.20;7.43;;;22.60;59.10;;;;;;5105863;28;20450;-64
2022/12/26 10:00:32;;;;;;;12.17;7.00;;;22.60;59.20;;;;;;5104196;28;20462;-66
2022/12/26 10:03:01;;;;;;;8.97;7.20;;;22.60;59.20;;;;;;5106625;28;20466;-70
2022/12/26 10:05:35;;;;;;;8.17;7.23;;;22.50;59.30;;;;;;5101914;28;20445;-65
2022/12/26 10:08:19;;;;;;;9.37;7.50;;;22.50;59.30;;;;;;5091595;28;20833;-64
2022/12/26 10:10:58;;;;;;;8.43;7.60;;;22.50;59.40;;;;;;5090798;28;20445;-66
2022/12/26 10:13:34;;;;;;;9.20;8.30;;;22.50;59.40;;;;;;5098431;28;20473;-64
2022/12/26 10:16:08;;;;;;;9.83;8.63;;;22.40;59.50;;;;;;5101885;27;20459;-65
2022/12/26 10:18:44;;;;;;;9.30;8.00;;;22.40;59.50;;;;;;5104117;27;20583;-65
2022/12/26 10:21:31;;;;;;;8.80;8.00;;;22.40;59.60;;;;;;5103143;28;20533;-69
2022/12/26 10:24:04;;;;;;;13.60;8.60;;;22.40;59.60;;;;;;5099129;28;20568;-66
2022/12/26 10:26:38;;;;;;;9.90;7.93;;;22.40;59.60;;;;;;5100029;27;20456;-67
2022/12/26 10:29:18;;;;;;;10.43;8.40;;;22.40;59.70;;;;;;5104826;27;20472;-64
2022/12/26 10:31:52;;;;;;;10.47;8.90;;;22.40;59.70;;;;;;5109885;28;20871;-68
2022/12/26 10:34:23;;;;;;;10.50;8.27;;;22.40;59.70;;;;;;5105804;28;20543;-64
2022/12/26 10:36:57;;;;;;;9.00;8.20;;;22.40;59.70;;;;;;5111862;28;20559;-65
2022/12/26 10:39:29;;;;;;;9.67;8.70;;;22.40;59.70;;;;;;5105083;28;20463;-64
2022/12/26 10:42:03;;;;;;;10.40;8.77;;;22.50;59.70;;;;;;5109984;28;20540;-64
2022/12/26 10:44:31;;;;;;;10.60;9.50;;;22.50;59.70;;;;;;5105454;28;20626;-66
2022/12/26 10:47:24;;;;;;;10.77;9.57;;;22.50;59.60;;;;;;5111125;27;20450;-67
2022/12/26 10:49:53;;;;;;;10.07;9.00;;;22.60;59.60;;;;;;5104095;27;20487;-64
2022/12/26 10:52:27;;;;;;;8.60;7.90;;;22.60;59.60;;;;;;5104415;28;20529;-65
2022/12/26 10:54:58;;;;;;;9.23;8.27;;;22.60;59.50;;;;;;5105965;28;20459;-63
2022/12/26 10:57:50;;;;;;;9.93;8.93;;;22.60;59.50;;;;;;5103490;27;20439;-64
2022/12/26 11:00:21;;;;;;;9.13;8.23;;;22.60;59.50;;;;;;5103468;27;20936;-64
2022/12/26 11:03:04;;;;;;;10.07;9.07;;;22.50;59.60;;;;;;5101588;27;20448;-64
2022/12/26 11:05:33;;;;;;;12.43;9.80;;;22.50;59.70;;;;;;5103663;27;20440;-67
2022/12/26 11:08:26;;;;;;;9.67;8.73;;;22.50;59.70;;;;;;5098560;27;21013;-65
2022/12/26 11:11:05;;;;;;;12.77;9.17;;;22.50;59.80;;;;;;5096969;27;21534;-67
2022/12/26 11:13:38;;;;;;;12.53;9.10;;;22.40;59.80;;;;;;5083612;28;20461;-64
2022/12/26 11:16:08;;;;;;;13.80;9.90;;;22.40;59.90;;;;;;5103074;27;20452;-68
2022/12/26 11:18:39;;;;;;;10.73;8.93;;;22.40;59.90;;;;;;5110872;27;20448;-64
2022/12/26 11:21:19;;;;;;;9.70;8.80;;;22.40;59.90;;;;;;5092975;27;22418;-65
2022/12/26 11:23:51;;;;;;;10.77;8.97;;;22.40;60.00;;;;;;5095216;27;20449;-64
2022/12/26 11:26:22;;;;;;;9.30;8.40;;;22.40;59.90;;;;;;5098462;28;20517;-66
2022/12/26 11:29:06;;;;;;;9.93;8.43;;;22.30;60.00;;;;;;5096724;27;20564;-65
2022/12/26 11:31:34;;;;;;;12.10;9.00;;;22.40;60.00;;;;;;5100364;28;20463;-67
2022/12/26 11:34:08;;;;;;;9.73;8.73;;;22.30;59.90;;;;;;5104108;28;20544;-65
2022/12/26 11:36:44;;;;;;;10.10;9.10;;;22.30;60.00;;;;;;5109700;27;20958;-65
2022/12/26 11:39:22;;;;;;;9.70;8.70;;;22.30;59.90;;;;;;5105586;27;20531;-64
2022/12/26 11:41:51;;;;;;;10.00;7.80;;;22.30;59.90;;;;;;5101946;28;20996;-68
2022/12/26 11:44:26;;;;;;;9.10;8.33;;;22.40;60.00;;;;;;5100410;27;20457;-64
2022/12/26 11:46:58;;;;;;;9.00;8.20;;;22.40;60.00;;;;;;5099035;28;20464;-64
2022/12/26 11:49:33;;;;;;;9.70;8.90;;;22.40;60.00;;;;;;5103452;27;20449;-64
2022/12/26 11:52:03;;;;;;;9.67;8.87;;;22.40;60.00;;;;;;5095008;27;20506;-64
2022/12/26 11:54:34;;;;;;;9.60;8.70;;;22.40;59.90;;;;;;5101147;27;20551;-67
2022/12/26 11:57:12;;;;;;;8.87;7.97;;;22.40;59.90;;;;;;5100402;27;20591;-64
2022/12/26 11:59:42;;;;;;;8.90;8.10;;;22.50;59.90;;;;;;5101106;27;20464;-68
2022/12/26 12:02:27;;;;;;;9.27;7.40;;;22.50;59.90;;;;;;5100533;27;20588;-64
2022/12/26 12:04:59;;;;;;;8.93;8.03;;;22.50;59.80;;;;;;5102098;27;20455;-64
2022/12/26 12:08:01;;;;;;;9.03;8.00;;;22.50;59.80;;;;;;5102456;27;20480;-69
2022/12/26 12:10:59;;;;;;;10.97;8.50;;;22.50;59.80;;;;;;5103686;27;20507;-65
2022/12/26 12:13:44;;;;;;;9.27;8.30;;;22.50;59.80;;;;;;5096661;28;20514;-64
2022/12/26 12:16:31;;;;;;;8.60;7.80;;;22.50;59.80;;;;;;5102745;27;20916;-64
2022/12/26 12:19:07;;;;;;;8.07;7.37;;;22.50;59.80;;;;;;5102202;27;20465;-69
2022/12/26 12:21:43;;;;;;;10.00;7.93;;;22.50;59.90;;;;;;5097494;27;20450;-64
2022/12/26 12:24:37;;;;;;;9.17;7.63;;;22.50;59.90;;;;;;5096230;27;20452;-66
2022/12/26 12:27:12;;;;;;;9.40;7.70;;;22.50;59.90;;;;;;5102730;27;20529;-66
2022/12/26 12:30:01;;;;;;;8.57;7.70;;;22.40;59.90;;;;;;5099727;28;20468;-66
2022/12/26 12:32:43;;;;;;;8.13;7.33;;;22.40;59.90;;;;;;5097299;27;20457;-66
2022/12/26 12:35:24;;;;;;;8.93;8.00;;;22.40;60.00;;;;;;5098768;27;20807;-66
2022/12/26 12:38:13;;;;;;;8.47;7.60;;;22.40;60.10;;;;;;5098304;27;20987;-64
2022/12/26 12:40:51;;;;;;;7.13;6.43;;;22.40;60.10;;;;;;5097506;27;20499;-69
2022/12/26 12:43:26;;;;;;;6.73;6.13;;;22.40;60.10;;;;;;5095733;28;20855;-70
2022/12/26 12:46:04;;;;;;;7.30;6.57;;;22.40;60.20;;;;;;5096425;27;20563;-66
2022/12/26 12:48:47;;;;;;;6.27;5.77;;;22.30;60.20;;;;;;5097273;28;20464;-67
2022/12/26 12:51:25;;;;;;;6.87;6.20;;;22.30;60.50;;;;;;5094426;27;21408;-65
2022/12/26 12:54:18;;;;;;;9.77;6.13;;;22.30;60.70;;;;;;5099114;27;20962;-65
2022/12/26 12:56:55;;;;;;;7.77;6.70;;;22.20;60.90;;;;;;5101439;27;20448;-66
2022/12/26 12:59:32;;;;;;;6.50;5.90;;;22.20;60.90;;;;;;5096376;27;20612;-65
2022/12/26 13:02:06;;;;;;;7.60;7.00;;;22.20;61.00;;;;;;5104722;27;21014;-69
2022/12/26 13:04:45;;;;;;;6.60;5.60;;;22.20;61.00;;;;;;5106390;28;20503;-67
2022/12/26 13:07:24;;;;;;;9.23;5.33;;;22.20;61.10;;;;;;5102692;28;20472;-65
2022/12/26 13:09:57;;;;;;;5.93;5.43;;;22.20;61.20;;;;;;5094285;27;20956;-68
2022/12/26 13:12:29;;;;;;;6.13;5.53;;;22.30;61.20;;;;;;5099211;27;20468;-66
2022/12/26 13:15:01;;;;;;;6.53;4.93;;;22.30;61.30;;;;;;5105970;28;22169;-70
2022/12/26 13:17:34;;;;;;;5.70;5.20;;;22.30;61.30;;;;;;5100362;27;20448;-68
2022/12/26 13:20:14;;;;;;;5.60;4.93;;;22.30;61.30;;;;;;5103420;28;20543;-66
2022/12/26 13:25:39;;;;;;;5.00;4.50;;;22.30;61.30;;;;;;5105184;28;20522;-65
2022/12/26 13:28:15;;;;;;;6.13;5.53;;;22.40;61.30;;;;;;5102878;28;20448;-66
2022/12/26 13:30:44;;;;;;;5.10;4.70;;;22.40;61.30;;;;;;5101110;28;20525;-66
2022/12/26 13:33:15;;;;;;;5.83;4.50;;;22.40;61.30;;;;;;5099643;28;20559;-66
2022/12/26 13:35:55;;;;;;;5.10;4.70;;;22.30;61.20;;;;;;5099468;28;20505;-69
2022/12/26 13:38:46;;;;;;;5.10;4.60;;;22.30;61.40;;;;;;5096524;28;20459;-66
2022/12/26 13:44:25;;;;;;;4.10;3.80;;;22.30;61.50;;;;;;5103411;28;20511;-66
2022/12/26 13:46:56;;;;;;;4.93;4.40;;;22.30;61.50;;;;;;5109406;28;20444;-68
2022/12/26 13:49:35;;;;;;;6.10;4.03;;;22.30;61.50;;;;;;5108681;27;20495;-65
2022/12/26 13:52:36;;;;;;;3.67;3.37;;;22.30;61.50;;;;;;5111224;27;20467;-65
2022/12/26 13:55:48;;;;;;;3.80;3.60;;;22.30;61.60;;;;;;5109566;27;21691;-72
2022/12/26 13:58:42;;;;;;;4.10;3.77;;;22.30;61.60;;;;;;5087986;28;20479;-69
2022/12/26 14:01:27;;;;;;;4.20;3.80;;;22.20;61.70;;;;;;5098102;27;20479;-69
2022/12/26 14:04:15;;;;;;;3.77;3.47;;;22.20;61.70;;;;;;5107137;27;20536;-66
2022/12/26 14:07:03;;;;;;;4.77;4.13;;;22.20;61.70;;;;;;5104440;27;20496;-71
2022/12/26 14:09:46;;;;;;;3.10;2.90;;;22.20;61.70;;;;;;5105294;27;20506;-71
2022/12/26 14:12:49;;;;;;;3.30;3.00;;;22.20;61.70;;;;;;5104316;27;20572;-65
2022/12/26 14:15:31;;;;;;;6.37;3.47;;;22.20;61.70;;;;;;5085228;27;20873;-66
2022/12/26 14:18:15;;;;;;;4.23;3.87;;;22.20;61.70;;;;;;5107801;27;20483;-66
2022/12/26 14:20:50;;;;;;;5.00;3.80;;;22.20;61.60;;;;;;5108948;27;20469;-69
2022/12/26 14:23:35;;;;;;;4.80;3.70;;;22.20;61.70;;;;;;5110791;28;20539;-65
2022/12/26 14:26:21;;;;;;;5.07;3.47;;;22.20;61.70;;;;;;5112404;27;20462;-66
2022/12/26 14:28:59;;;;;;;3.40;3.10;;;22.20;61.60;;;;;;5109314;28;20476;-65
2022/12/26 14:31:37;;;;;;;3.17;2.87;;;22.30;61.70;;;;;;5105492;27;20578;-69
2022/12/26 14:34:16;;;;;;;4.10;3.10;;;22.30;61.70;;;;;;5106536;28;20459;-70
2022/12/26 14:36:49;;;;;;;3.07;2.87;;;22.30;61.60;;;;;;5103828;28;20475;-67
2022/12/26 14:39:27;;;;;;;2.70;2.50;;;22.30;61.60;;;;;;5109005;27;20455;-66
2022/12/26 14:45:44;;;;;;;3.33;3.03;;;22.30;61.50;;;;;;5098628;27;20456;-67
2022/12/26 14:48:48;;;;;;;3.20;3.00;;;22.30;61.50;;;;;;5072881;28;20463;-65
2022/12/26 14:51:41;;;;;;;3.07;2.90;;;22.30;61.50;;;;;;5107044;28;20982;-65
2022/12/26 14:54:35;;;;;;;3.63;2.87;;;22.30;61.50;;;;;;5104167;27;20459;-66
2022/12/26 14:57:33;;;;;;;3.00;2.80;;;22.30;61.50;;;;;;5106951;27;20460;-65
2022/12/26 15:00:43;;;;;;;3.00;2.80;;;22.30;61.50;;;;;;5090937;27;20466;-66
2022/12/26 15:03:37;;;;;;;5.03;2.87;;;22.30;61.50;;;;;;5091418;28;20467;-65
2022/12/26 15:06:34;;;;;;;2.40;2.30;;;22.30;61.50;;;;;;5106884;27;20462;-65
2022/12/26 15:09:19;;;;;;;3.13;2.30;;;22.20;61.50;;;;;;5100303;27;20538;-67
2022/12/26 15:12:12;;;;;;;2.73;2.53;;;22.20;61.50;;;;;;5106779;27;21807;-66
2022/12/26 15:15:14;;;;;;;2.80;2.60;;;22.20;61.40;;;;;;5104779;28;20476;-71
2022/12/26 15:17:49;;;;;;;2.70;2.50;;;22.20;61.60;;;;;;5105491;27;21008;-71
2022/12/26 15:20:54;;;;;;;2.93;2.73;;;22.20;61.50;;;;;;5103155;27;20797;-69
2022/12/26 15:23:54;;;;;;;2.37;2.17;;;22.20;61.50;;;;;;5088843;28;20489;-65
2022/12/26 15:26:56;;;;;;;4.63;2.50;;;22.20;61.60;;;;;;5102938;27;20481;-71
2022/12/26 15:29:40;;;;;;;2.60;2.50;;;22.10;61.50;;;;;;5104656;27;20474;-65
2022/12/26 15:32:17;;;;;;;2.20;2.00;;;22.10;61.60;;;;;;5106651;28;20860;-65
2022/12/26 15:34:54;;;;;;;3.10;2.77;;;22.20;61.70;;;;;;5109773;27;20471;-69
2022/12/26 15:37:41;;;;;;;2.80;2.60;;;22.20;61.60;;;;;;5110024;28;20517;-66